Terminal Aerodrome Forecast
Issued by NWS

Home | Current Version | Previous Version | Text Only | Print | Product List | Glossary On
Versions: 1 2 3 4 5 6 7 8 9 10 11 12 13 14 15 16 17 18
000
FTUS45 KABQ 012345
TAFLVS
TAF
KLVS 012345Z 0200/0224 21012G20KT P6SM VCSH SCT070 BKN120
      TEMPO 0200/0202 VRB21G34KT -TSRA BKN070CB BKN120
     FM020300 21008KT P6SM VCSH SCT090 BKN120
     FM020600 22008KT P6SM SKC
     FM021800 24021G32KT P6SM SKC=

USA.gov is the U.S. government's official web portal to all federal, state and local government web resources and services.